Time;durP1;ratioP1;P1;durP2;ratioP2;P2;SDS_P1;SDS_P2;PMS_P1;PMS_P2;Temp;Humidity;BMP_temperature;BMP_pressure;BME280_temperature;BME280_humidity;BME280_pressure;Samples;Min_cycle;Max_cycle;Signal;HPM_P1;HPM_P2
2023/09/12 03:31:53;;;;;;;7.63;5.77;;;16.60;99.90;;;;;;5509194;22;20507;-65
2023/09/12 03:34:19;;;;;;;5.47;4.87;;;16.60;99.90;;;;;;5009884;28;20495;-65
2023/09/12 03:36:46;;;;;;;5.33;4.80;;;16.60;99.90;;;;;;5012071;28;20461;-65
2023/09/12 03:39:13;;;;;;;6.53;5.17;;;16.60;99.90;;;;;;5020461;28;20468;-65
2023/09/12 03:41:40;;;;;;;6.33;5.10;;;16.60;99.90;;;;;;4999740;28;20489;-65
2023/09/12 03:44:08;;;;;;;10.23;5.90;;;16.50;99.90;;;;;;4999123;28;20459;-65
2023/09/12 03:46:34;;;;;;;6.50;5.90;;;16.50;99.90;;;;;;4995065;28;20461;-65
2023/09/12 03:49:03;;;;;;;7.77;5.43;;;16.50;99.90;;;;;;5003801;28;20861;-66
2023/09/12 03:51:29;;;;;;;6.50;5.70;;;16.50;99.90;;;;;;4995462;28;20528;-66
2023/09/12 03:53:56;;;;;;;6.17;5.57;;;16.50;99.90;;;;;;4991053;28;20861;-66
2023/09/12 03:56:23;;;;;;;5.33;4.83;;;16.40;99.90;;;;;;4992560;28;20467;-66
2023/09/12 03:58:50;;;;;;;7.53;5.77;;;16.40;99.90;;;;;;4993415;28;20965;-65
2023/09/12 04:01:17;;;;;;;7.40;5.47;;;16.40;99.90;;;;;;5011131;28;20572;-66
2023/09/12 04:03:44;;;;;;;6.20;5.60;;;16.40;99.90;;;;;;5001577;28;20637;-66
2023/09/12 04:06:12;;;;;;;6.20;5.60;;;16.40;99.90;;;;;;5006872;28;20555;-66
2023/09/12 04:08:39;;;;;;;7.93;5.57;;;16.40;99.90;;;;;;5007768;28;20471;-66
2023/09/12 04:11:05;;;;;;;6.97;5.43;;;16.30;99.90;;;;;;5003675;28;20491;-66
2023/09/12 04:13:32;;;;;;;7.80;6.67;;;16.40;99.90;;;;;;5010738;28;20468;-66
2023/09/12 04:15:59;;;;;;;7.57;5.97;;;16.40;99.90;;;;;;5007523;28;20858;-65
2023/09/12 04:18:25;;;;;;;7.07;5.60;;;16.40;99.90;;;;;;4992607;28;20466;-65
2023/09/12 04:20:52;;;;;;;9.63;5.63;;;16.30;99.90;;;;;;5009586;28;20480;-65
2023/09/12 04:23:20;;;;;;;6.53;5.77;;;16.30;99.90;;;;;;4996681;28;20469;-65
2023/09/12 04:25:47;;;;;;;5.77;5.13;;;16.30;99.90;;;;;;4993444;28;20461;-64
2023/09/12 04:28:14;;;;;;;6.53;5.83;;;16.30;99.90;;;;;;5011400;28;20841;-65
2023/09/12 04:30:41;;;;;;;7.97;5.67;;;16.30;99.90;;;;;;5002131;28;21029;-65
2023/09/12 04:33:08;;;;;;;6.77;5.73;;;16.30;99.90;;;;;;5003358;28;20472;-65
2023/09/12 04:35:35;;;;;;;9.63;5.37;;;16.30;99.90;;;;;;4995009;28;21033;-65
2023/09/12 04:38:02;;;;;;;6.87;5.93;;;16.30;99.90;;;;;;4991321;28;20477;-65
2023/09/12 04:40:31;;;;;;;7.00;5.73;;;16.30;99.90;;;;;;5006790;28;20460;-65
2023/09/12 04:42:57;;;;;;;6.80;6.20;;;16.30;99.90;;;;;;5010171;28;20550;-65
2023/09/12 04:45:24;;;;;;;10.20;6.47;;;16.30;99.90;;;;;;5003247;28;20464;-65
2023/09/12 04:47:51;;;;;;;8.07;6.00;;;16.30;99.90;;;;;;4992633;28;20481;-65
2023/09/12 04:50:18;;;;;;;7.00;6.30;;;16.30;99.90;;;;;;4999596;28;20949;-65
2023/09/12 04:52:44;;;;;;;7.10;6.40;;;16.30;99.90;;;;;;4990673;28;20465;-65
2023/09/12 04:55:11;;;;;;;7.13;5.87;;;16.30;99.90;;;;;;4991630;28;20490;-65
2023/09/12 04:57:39;;;;;;;5.93;5.10;;;16.30;99.90;;;;;;4991676;28;20465;-66
2023/09/12 05:00:08;;;;;;;8.53;6.60;;;16.30;99.90;;;;;;4999065;28;20475;-65
2023/09/12 05:02:34;;;;;;;7.27;6.37;;;16.30;99.90;;;;;;4996989;28;20556;-65
2023/09/12 05:05:01;;;;;;;7.97;5.80;;;16.40;99.90;;;;;;4999329;28;20463;-65
2023/09/12 05:07:28;;;;;;;6.87;6.10;;;16.40;99.90;;;;;;4996611;28;20468;-65
2023/09/12 05:09:54;;;;;;;6.93;6.30;;;16.40;99.90;;;;;;4997725;28;20472;-65
2023/09/12 05:12:21;;;;;;;6.70;6.00;;;16.40;99.90;;;;;;5002757;28;20989;-65
2023/09/12 05:14:49;;;;;;;10.23;6.00;;;16.50;99.90;;;;;;5000903;28;20488;-65
2023/09/12 05:17:16;;;;;;;6.97;6.27;;;16.50;99.90;;;;;;5003238;28;20465;-65
2023/09/12 05:19:42;;;;;;;8.83;5.97;;;16.50;99.90;;;;;;4999977;28;20468;-65
2023/09/12 05:22:09;;;;;;;7.87;6.13;;;16.50;99.90;;;;;;4997899;28;20487;-67
2023/09/12 05:24:36;;;;;;;6.90;5.87;;;16.60;99.90;;;;;;4995135;28;20464;-72
2023/09/12 05:27:03;;;;;;;7.70;5.83;;;16.60;99.90;;;;;;4998099;28;21007;-73
2023/09/12 05:29:30;;;;;;;7.70;5.97;;;16.60;99.90;;;;;;4995733;28;20956;-72
2023/09/12 05:31:58;;;;;;;5.93;5.30;;;16.70;99.90;;;;;;4993006;28;20492;-71
2023/09/12 05:34:25;;;;;;;6.63;5.87;;;16.70;99.90;;;;;;4994137;28;20464;-71
2023/09/12 05:36:51;;;;;;;6.37;5.80;;;16.80;99.90;;;;;;4993756;28;20497;-71
2023/09/12 05:39:18;;;;;;;8.30;6.83;;;16.80;99.90;;;;;;4994999;28;20465;-72
2023/09/12 05:41:45;;;;;;;6.73;6.07;;;16.90;99.90;;;;;;4993979;28;20483;-70
2023/09/12 05:44:17;;;;;;;7.13;6.27;;;16.90;99.90;;;;;;4995256;28;20470;-70
2023/09/12 05:46:44;;;;;;;7.33;5.67;;;17.00;99.90;;;;;;5003557;28;20465;-70
2023/09/12 05:49:12;;;;;;;9.57;6.17;;;17.00;99.90;;;;;;5002460;28;20465;-66
2023/09/12 05:51:38;;;;;;;6.97;6.10;;;17.10;99.90;;;;;;4996130;28;21026;-66
2023/09/12 05:54:06;;;;;;;6.53;5.93;;;17.20;99.90;;;;;;4998981;28;20461;-66
2023/09/12 05:56:32;;;;;;;6.93;6.23;;;17.20;99.90;;;;;;5006400;28;20488;-66
2023/09/12 05:58:59;;;;;;;6.93;6.23;;;17.30;99.90;;;;;;4998185;28;20463;-66
2023/09/12 06:01:26;;;;;;;6.17;5.30;;;17.40;99.90;;;;;;5000464;28;20492;-66
2023/09/12 06:03:53;;;;;;;6.03;5.37;;;17.50;99.90;;;;;;5004345;28;20850;-66
2023/09/12 06:06:22;;;;;;;9.43;6.73;;;17.60;99.90;;;;;;5000577;28;20520;-70
2023/09/12 06:08:49;;;;;;;7.07;6.00;;;17.70;99.90;;;;;;5003333;28;20493;-69
2023/09/12 06:11:16;;;;;;;7.77;7.00;;;17.80;99.90;;;;;;4993519;28;20498;-67
2023/09/12 06:13:43;;;;;;;8.70;6.30;;;17.90;99.90;;;;;;4992991;28;20458;-67
2023/09/12 06:16:09;;;;;;;8.30;6.07;;;18.00;99.90;;;;;;5002697;28;20489;-67
2023/09/12 06:18:36;;;;;;;6.97;6.27;;;18.00;99.90;;;;;;4993307;28;20966;-67
2023/09/12 06:21:04;;;;;;;7.93;6.77;;;18.10;99.90;;;;;;5002052;28;20487;-71
2023/09/12 06:23:32;;;;;;;8.47;6.53;;;18.20;99.90;;;;;;5002595;28;20458;-69
2023/09/12 06:25:59;;;;;;;10.87;7.00;;;18.30;99.90;;;;;;4992713;28;20462;-67
2023/09/12 06:28:26;;;;;;;8.40;5.70;;;18.30;99.90;;;;;;4996272;28;20836;-67
2023/09/12 06:30:53;;;;;;;7.37;6.67;;;18.40;99.90;;;;;;4997206;28;20482;-66
2023/09/12 06:33:20;;;;;;;7.50;6.70;;;18.50;99.90;;;;;;5002348;28;20466;-65
2023/09/12 06:35:49;;;;;;;8.20;7.40;;;18.60;99.90;;;;;;5002996;28;20485;-69
2023/09/12 06:38:16;;;;;;;8.87;6.30;;;18.60;99.90;;;;;;5009378;28;20466;-67
2023/09/12 06:40:45;;;;;;;14.80;7.90;;;18.70;99.90;;;;;;5003745;28;20487;-69
2023/09/12 06:43:11;;;;;;;8.07;6.27;;;18.80;99.90;;;;;;4994313;28;20963;-70
2023/09/12 06:45:38;;;;;;;6.43;5.83;;;18.80;99.90;;;;;;5003200;28;20470;-70
2023/09/12 06:48:06;;;;;;;7.07;6.37;;;18.90;99.90;;;;;;4993167;28;20469;-68
2023/09/12 06:50:32;;;;;;;6.50;5.90;;;19.00;99.90;;;;;;4993584;28;20462;-70
2023/09/12 06:52:59;;;;;;;8.23;6.23;;;19.00;99.90;;;;;;4992381;28;20465;-69
2023/09/12 06:55:26;;;;;;;7.43;6.33;;;19.10;99.90;;;;;;4993368;28;20487;-66
2023/09/12 06:57:54;;;;;;;7.47;5.80;;;19.20;99.90;;;;;;5002806;28;20557;-66
2023/09/12 07:00:21;;;;;;;6.97;6.20;;;19.30;99.90;;;;;;4993049;28;20470;-69
2023/09/12 07:02:47;;;;;;;9.50;7.40;;;19.30;99.90;;;;;;4994681;28;20466;-70
2023/09/12 07:05:14;;;;;;;7.33;6.07;;;19.40;99.90;;;;;;5002910;28;20467;-69
2023/09/12 07:07:41;;;;;;;7.33;6.63;;;19.50;99.90;;;;;;5003651;28;20467;-70
2023/09/12 07:10:08;;;;;;;6.83;6.13;;;19.50;99.90;;;;;;5002006;28;20956;-70
2023/09/12 07:12:35;;;;;;;8.80;6.37;;;19.60;99.90;;;;;;4994495;28;20554;-70
2023/09/12 07:15:04;;;;;;;8.30;7.50;;;19.70;99.90;;;;;;5002466;28;20468;-70
2023/09/12 07:17:30;;;;;;;7.93;7.13;;;19.80;99.90;;;;;;4993030;28;20474;-70
2023/09/12 07:19:57;;;;;;;6.60;5.90;;;19.90;99.90;;;;;;4992664;28;20473;-70
2023/09/12 07:22:24;;;;;;;10.40;6.90;;;20.00;99.90;;;;;;4992326;28;20506;-70
2023/09/12 07:24:50;;;;;;;7.60;5.87;;;20.10;99.90;;;;;;5002925;28;20605;-70
2023/09/12 07:27:17;;;;;;;13.53;7.17;;;20.30;99.90;;;;;;5007170;28;20841;-70
2023/09/12 07:29:44;;;;;;;6.90;5.83;;;20.30;99.90;;;;;;4997045;28;20465;-70
2023/09/12 07:32:12;;;;;;;8.07;6.53;;;20.50;99.90;;;;;;5001151;28;20510;-70
2023/09/12 07:34:39;;;;;;;7.70;6.17;;;20.60;99.90;;;;;;4992524;28;20975;-68
2023/09/12 07:37:05;;;;;;;6.57;5.97;;;20.80;99.90;;;;;;4992159;28;20493;-70
2023/09/12 07:39:32;;;;;;;7.77;7.07;;;21.00;99.90;;;;;;5000134;28;20473;-70
2023/09/12 07:41:59;;;;;;;7.23;6.53;;;21.10;99.90;;;;;;4999485;28;20485;-70
2023/09/12 07:44:25;;;;;;;6.97;6.20;;;21.30;99.90;;;;;;5006181;28;20463;-69
2023/09/12 07:46:52;;;;;;;6.73;5.87;;;21.50;99.90;;;;;;5004158;28;20472;-71
2023/09/12 07:49:20;;;;;;;7.47;6.77;;;21.70;99.90;;;;;;4992512;28;20462;-70
2023/09/12 07:54:17;;;;;;;8.40;6.57;;;22.00;99.90;;;;;;5170722;22;20478;-70
2023/09/12 07:56:44;;;;;;;10.00;7.40;;;22.10;99.90;;;;;;5011880;28;20932;-70
2023/09/12 07:59:12;;;;;;;7.63;6.93;;;22.20;99.90;;;;;;5011885;28;20472;-70
2023/09/12 08:01:39;;;;;;;7.80;7.07;;;22.40;99.90;;;;;;5000894;28;20568;-69
2023/09/12 08:04:06;;;;;;;6.73;6.00;;;22.50;99.90;;;;;;4996469;28;20859;-68
2023/09/12 08:06:34;;;;;;;7.90;6.30;;;22.60;99.90;;;;;;4998399;28;20461;-67
2023/09/12 08:09:01;;;;;;;6.77;5.90;;;22.60;99.90;;;;;;4992298;28;20463;-69
2023/09/12 08:11:28;;;;;;;7.10;6.50;;;22.70;99.90;;;;;;4993077;28;20585;-69
2023/09/12 08:13:55;;;;;;;6.77;6.10;;;22.70;99.90;;;;;;4991643;28;20466;-70
2023/09/12 08:16:21;;;;;;;7.20;6.50;;;22.70;99.90;;;;;;4991430;28;20493;-70
2023/09/12 08:18:48;;;;;;;7.73;7.00;;;22.70;99.90;;;;;;4991530;28;20467;-70
2023/09/12 08:21:15;;;;;;;7.13;6.43;;;22.70;99.90;;;;;;4984384;28;20494;-69
2023/09/12 08:23:43;;;;;;;7.30;6.60;;;22.70;99.90;;;;;;4986664;28;20485;-70
2023/09/12 08:26:12;;;;;;;10.50;6.90;;;22.70;99.90;;;;;;4974125;28;20492;-69
2023/09/12 08:28:39;;;;;;;6.33;5.73;;;22.80;99.90;;;;;;4991356;28;20455;-69
2023/09/12 08:31:06;;;;;;;10.60;6.90;;;22.80;99.90;;;;;;4991550;28;20483;-70
2023/09/12 08:33:33;;;;;;;6.50;5.90;;;22.80;99.90;;;;;;4991046;28;20950;-70
2023/09/12 08:36:00;;;;;;;5.80;5.30;;;23.00;99.90;;;;;;4991076;28;20493;-68
2023/09/12 08:38:26;;;;;;;7.10;6.40;;;23.30;99.90;;;;;;4991899;28;20807;-67
2023/09/12 08:40:55;;;;;;;7.23;6.57;;;23.50;99.90;;;;;;4991245;28;20482;-68
2023/09/12 08:43:22;;;;;;;6.20;5.43;;;23.80;99.90;;;;;;4991855;28;20478;-69
2023/09/12 08:45:49;;;;;;;6.57;5.97;;;24.10;99.90;;;;;;4997696;28;20462;-70
2023/09/12 08:48:17;;;;;;;7.03;5.80;;;24.30;99.90;;;;;;4996891;28;20470;-71
2023/09/12 08:50:44;;;;;;;8.10;6.43;;;24.50;99.90;;;;;;5001554;28;20826;-70
2023/09/12 08:53:11;;;;;;;6.30;5.80;;;24.70;99.90;;;;;;4998870;28;20477;-69
2023/09/12 08:55:38;;;;;;;6.03;5.53;;;24.80;99.90;;;;;;5002700;28;20468;-69
2023/09/12 08:58:07;;;;;;;7.03;6.43;;;24.90;99.90;;;;;;4999895;28;20467;-70
2023/09/12 09:00:35;;;;;;;6.40;5.90;;;24.90;99.90;;;;;;4999848;28;20485;-70
2023/09/12 09:03:03;;;;;;;6.80;6.20;;;25.10;99.90;;;;;;4995950;28;20557;-70
2023/09/12 09:05:30;;;;;;;7.43;6.37;;;25.20;99.90;;;;;;5002969;28;20462;-67
2023/09/12 09:07:58;;;;;;;8.57;7.47;;;25.40;99.90;;;;;;4997362;28;20466;-68
2023/09/12 09:10:26;;;;;;;7.63;6.67;;;25.50;99.90;;;;;;5001563;28;20471;-69
2023/09/12 09:13:07;;;;;;;6.87;6.23;;;25.60;99.90;;;;;;4996106;28;20540;-67
2023/09/12 09:15:37;;;;;;;6.40;5.90;;;25.70;99.90;;;;;;4995540;28;20458;-71
2023/09/12 09:18:07;;;;;;;5.83;5.33;;;25.90;99.90;;;;;;4996056;28;20454;-71
2023/09/12 09:20:37;;;;;;;7.43;6.73;;;26.10;99.90;;;;;;5000182;28;20489;-71
2023/09/12 09:23:09;;;;;;;6.53;5.93;;;26.30;99.90;;;;;;4995243;28;20464;-72
2023/09/12 09:25:40;;;;;;;6.80;6.20;;;26.50;99.90;;;;;;4997846;28;20465;-67
2023/09/12 09:28:18;;;;;;;8.17;7.27;;;26.70;99.90;;;;;;4999470;28;20601;-67
2023/09/12 09:30:48;;;;;;;7.00;5.60;;;26.90;99.90;;;;;;4998824;28;20485;-67
2023/09/12 09:33:16;;;;;;;7.20;6.50;;;27.10;99.90;;;;;;4997967;28;20466;-67
2023/09/12 09:35:44;;;;;;;6.13;5.63;;;27.30;99.90;;;;;;4998681;28;20464;-67
2023/09/12 09:38:16;;;;;;;6.40;5.80;;;27.40;99.90;;;;;;4998288;28;20465;-67
2023/09/12 09:40:44;;;;;;;8.10;6.37;;;27.50;99.90;;;;;;4998086;28;20504;-67
2023/09/12 09:43:13;;;;;;;7.77;6.10;;;27.60;99.90;;;;;;4998284;28;20465;-67
2023/09/12 09:45:46;;;;;;;7.10;6.40;;;27.70;99.90;;;;;;4998193;28;20465;-67
2023/09/12 09:48:20;;;;;;;7.40;6.70;;;27.90;99.90;;;;;;4998473;28;20454;-67
2023/09/12 09:50:48;;;;;;;5.57;5.07;;;28.00;99.90;;;;;;4998419;28;20855;-67
2023/09/12 09:53:16;;;;;;;6.10;5.50;;;28.10;99.90;;;;;;4997774;28;20528;-67
2023/09/12 09:55:43;;;;;;;6.00;5.40;;;28.20;99.90;;;;;;4994668;28;20574;-66
2023/09/12 09:58:16;;;;;;;5.90;5.40;;;28.30;99.90;;;;;;4994738;28;20468;-66
2023/09/12 10:00:43;;;;;;;7.00;6.13;;;28.50;99.90;;;;;;4994671;28;20536;-66
2023/09/12 10:03:12;;;;;;;5.90;5.40;;;28.60;99.90;;;;;;4994075;28;20474;-65
2023/09/12 10:05:39;;;;;;;8.50;5.80;;;28.70;99.90;;;;;;4994560;28;20458;-66
2023/09/12 10:08:09;;;;;;;6.13;5.57;;;28.70;99.90;;;;;;4994349;28;20504;-65
2023/09/12 10:10:39;;;;;;;7.00;6.40;;;28.80;99.90;;;;;;4993999;28;20490;-65
2023/09/12 10:13:06;;;;;;;7.10;6.40;;;28.90;99.90;;;;;;4993939;28;20466;-65
2023/09/12 10:15:37;;;;;;;6.23;5.73;;;29.10;99.90;;;;;;4994528;28;20466;-66
2023/09/12 10:18:09;;;;;;;6.80;6.10;;;29.30;99.90;;;;;;4994073;28;20459;-65
2023/09/12 10:20:42;;;;;;;6.77;6.07;;;29.30;99.90;;;;;;4994145;28;20482;-66
2023/09/12 10:23:15;;;;;;;6.60;5.63;;;29.30;99.90;;;;;;4993599;28;20465;-71
2023/09/12 10:25:44;;;;;;;6.53;5.93;;;29.30;99.90;;;;;;4994001;28;20969;-70
2023/09/12 10:28:13;;;;;;;6.27;5.77;;;29.40;99.90;;;;;;4986470;28;20568;-66
2023/09/12 10:30:41;;;;;;;6.27;5.67;;;29.50;99.90;;;;;;4994528;28;20517;-66
2023/09/12 10:33:09;;;;;;;6.70;5.50;;;29.60;99.90;;;;;;4993485;28;21033;-70
2023/09/12 10:35:39;;;;;;;7.73;5.53;;;29.70;99.90;;;;;;4993944;28;20486;-69
2023/09/12 10:38:08;;;;;;;6.90;6.20;;;29.80;99.90;;;;;;4994002;28;20459;-71
2023/09/12 10:40:37;;;;;;;5.93;5.33;;;29.90;99.90;;;;;;4993648;28;20486;-71
2023/09/12 10:43:05;;;;;;;6.67;5.93;;;29.90;99.90;;;;;;4993459;28;20454;-71
2023/09/12 10:45:33;;;;;;;6.60;5.80;;;30.00;99.90;;;;;;4993983;28;20463;-68
2023/09/12 10:48:00;;;;;;;8.43;5.87;;;30.10;99.90;;;;;;4993119;28;20482;-71
2023/09/12 10:50:28;;;;;;;11.60;5.47;;;30.20;99.90;;;;;;4993636;28;20477;-71
2023/09/12 10:52:57;;;;;;;6.53;5.77;;;30.20;99.90;;;;;;4993270;28;20496;-71
2023/09/12 10:55:23;;;;;;;6.17;5.60;;;30.20;99.90;;;;;;4993352;28;20832;-70
2023/09/12 10:58:06;;;;;;;6.63;5.93;;;30.30;99.90;;;;;;4993673;28;20525;-69
2023/09/12 11:00:34;;;;;;;6.73;6.13;;;30.40;99.90;;;;;;4992186;28;20462;-70
2023/09/12 11:03:01;;;;;;;7.13;5.10;;;30.40;99.90;;;;;;4990092;28;20471;-71
2023/09/12 11:05:38;;;;;;;6.50;5.87;;;30.40;99.90;;;;;;4974170;28;20522;-71
2023/09/12 11:08:06;;;;;;;6.20;5.60;;;30.50;99.90;;;;;;4972817;28;20553;-69
2023/09/12 11:10:33;;;;;;;6.37;5.77;;;30.60;99.90;;;;;;4974041;28;20866;-70
2023/09/12 11:13:00;;;;;;;5.20;4.70;;;30.70;99.90;;;;;;4973672;28;20852;-68
2023/09/12 11:15:28;;;;;;;5.53;5.03;;;30.70;99.90;;;;;;4974042;28;20837;-66
2023/09/12 11:18:04;;;;;;;6.20;5.60;;;30.70;99.90;;;;;;4973919;28;20821;-66
2023/09/12 11:20:52;;;;;;;6.33;5.77;;;30.80;99.90;;;;;;4973635;28;20463;-66
2023/09/12 11:23:20;;;;;;;5.90;5.30;;;30.90;99.90;;;;;;4986886;28;20461;-66
2023/09/12 11:25:47;;;;;;;6.00;5.40;;;31.00;99.90;;;;;;4992969;28;20503;-66
2023/09/12 11:28:14;;;;;;;4.97;4.57;;;31.00;99.90;;;;;;4991038;28;20490;-66
2023/09/12 11:30:58;;;;;;;5.83;4.60;;;31.10;99.90;;;;;;4973561;28;20484;-66
2023/09/12 11:33:25;;;;;;;5.53;5.03;;;31.20;99.90;;;;;;4987467;28;20470;-66
2023/09/12 11:35:54;;;;;;;5.80;5.13;;;31.30;99.90;;;;;;4992753;28;21017;-66
2023/09/12 11:38:29;;;;;;;5.47;4.77;;;31.30;99.90;;;;;;4992575;28;20466;-66
2023/09/12 11:40:56;;;;;;;5.10;4.70;;;31.50;99.90;;;;;;4992152;28;20528;-66
2023/09/12 11:43:25;;;;;;;5.40;4.90;;;31.50;99.90;;;;;;4992415;28;20470;-66
2023/09/12 11:45:52;;;;;;;5.20;4.23;;;31.60;99.90;;;;;;4992620;28;20458;-66
2023/09/12 11:48:19;;;;;;;5.00;4.60;;;31.70;99.90;;;;;;4992078;28;20494;-66
2023/09/12 11:50:51;;;;;;;5.47;4.97;;;31.70;99.90;;;;;;4992498;28;20489;-66
2023/09/12 11:53:22;;;;;;;4.77;4.37;;;31.80;99.90;;;;;;4991580;28;20470;-66
2023/09/12 11:55:52;;;;;;;5.30;4.43;;;31.90;99.90;;;;;;4992496;28;20584;-66
2023/09/12 11:58:19;;;;;;;5.33;4.80;;;32.00;99.90;;;;;;4992287;28;20474;-66
2023/09/12 12:00:47;;;;;;;4.97;4.57;;;32.10;99.90;;;;;;4992364;28;20482;-66
2023/09/12 12:03:15;;;;;;;5.20;4.67;;;32.20;99.90;;;;;;4991701;28;20560;-66
2023/09/12 12:05:42;;;;;;;5.03;4.63;;;32.30;99.90;;;;;;4991937;28;20990;-66
2023/09/12 12:08:09;;;;;;;5.40;4.93;;;32.20;99.90;;;;;;4991902;28;20490;-66
2023/09/12 12:10:38;;;;;;;5.50;5.00;;;32.10;99.90;;;;;;4992065;28;21002;-66
2023/09/12 12:13:06;;;;;;;4.80;4.43;;;32.10;99.90;;;;;;4984083;28;20469;-66
2023/09/12 12:15:33;;;;;;;5.63;5.07;;;32.20;99.90;;;;;;4992245;28;20458;-66
2023/09/12 12:17:59;;;;;;;5.03;4.63;;;32.30;99.90;;;;;;4991396;28;20517;-66
2023/09/12 12:20:27;;;;;;;5.20;4.77;;;32.40;99.90;;;;;;4991622;28;20455;-66
2023/09/12 12:22:54;;;;;;;5.00;4.60;;;32.60;99.90;;;;;;4991704;28;20836;-66
2023/09/12 12:25:22;;;;;;;5.17;4.77;;;32.70;99.90;;;;;;4991697;28;20839;-66
2023/09/12 12:27:49;;;;;;;4.90;4.50;;;32.70;99.90;;;;;;4991773;28;20490;-66
2023/09/12 12:30:18;;;;;;;5.27;4.77;;;32.70;99.90;;;;;;4991389;28;20498;-66
2023/09/12 12:32:47;;;;;;;5.27;4.73;;;32.70;99.90;;;;;;4991346;28;20549;-66
2023/09/12 12:35:19;;;;;;;4.60;4.20;;;32.70;99.90;;;;;;4991729;28;20466;-66
2023/09/12 12:37:46;;;;;;;4.93;4.53;;;32.80;99.50;;;;;;4991801;28;20454;-66
2023/09/12 12:40:14;;;;;;;5.07;4.53;;;32.70;99.90;;;;;;4991501;28;20467;-69
2023/09/12 12:42:42;;;;;;;5.43;5.03;;;32.80;99.90;;;;;;4991084;28;20947;-68
2023/09/12 12:45:13;;;;;;;5.30;4.37;;;32.80;99.90;;;;;;4991660;28;20466;-67
2023/09/12 12:47:42;;;;;;;5.40;4.90;;;32.90;99.90;;;;;;4991353;28;20494;-70
2023/09/12 12:50:11;;;;;;;5.70;5.10;;;32.90;99.90;;;;;;4991214;28;21037;-69
2023/09/12 12:52:38;;;;;;;5.10;4.70;;;33.00;99.90;;;;;;4990805;28;20475;-72
2023/09/12 12:55:06;;;;;;;4.40;4.10;;;33.00;97.50;;;;;;4987176;28;20863;-72
2023/09/12 12:57:36;;;;;;;4.60;4.20;;;32.90;99.10;;;;;;4986350;28;20454;-70
2023/09/12 13:00:05;;;;;;;4.83;4.43;;;32.90;98.90;;;;;;4996864;28;20458;-70
2023/09/12 13:02:32;;;;;;;5.00;4.60;;;32.90;99.90;;;;;;4991314;28;20476;-70
2023/09/12 13:05:00;;;;;;;4.57;4.20;;;33.00;99.90;;;;;;4996543;28;20952;-70
2023/09/12 13:07:27;;;;;;;5.80;5.30;;;33.10;99.90;;;;;;4984221;28;20490;-71
2023/09/12 13:09:53;;;;;;;5.73;5.23;;;33.10;99.90;;;;;;4971994;28;20541;-71
2023/09/12 13:12:20;;;;;;;5.93;5.40;;;33.10;99.90;;;;;;4983439;28;20483;-70
2023/09/12 13:14:47;;;;;;;5.87;5.37;;;33.10;99.90;;;;;;4972103;28;20840;-70
2023/09/12 13:17:14;;;;;;;5.83;4.97;;;32.90;99.90;;;;;;4984380;28;20461;-70
2023/09/12 13:19:40;;;;;;;6.00;5.47;;;32.90;99.90;;;;;;4991462;28;20465;-70
2023/09/12 13:22:09;;;;;;;5.87;4.80;;;32.90;99.90;;;;;;4990997;28;20850;-69
2023/09/12 13:24:36;;;;;;;5.50;5.10;;;32.90;99.80;;;;;;4991101;28;20474;-67
2023/09/12 13:27:02;;;;;;;5.60;5.10;;;32.70;99.70;;;;;;4990807;28;20461;-69
2023/09/12 13:29:29;;;;;;;6.23;5.63;;;32.30;99.90;;;;;;4996873;28;20476;-67
2023/09/12 13:31:56;;;;;;;5.17;4.77;;;31.90;99.90;;;;;;4994511;28;20485;-71
2023/09/12 13:34:23;;;;;;;5.80;5.17;;;31.50;99.90;;;;;;4995274;28;20464;-71
2023/09/12 13:36:49;;;;;;;5.80;5.30;;;31.00;99.90;;;;;;4994986;28;20469;-71
2023/09/12 13:39:18;;;;;;;5.50;5.00;;;30.70;99.90;;;;;;4994564;28;20454;-71
2023/09/12 13:41:45;;;;;;;7.33;5.70;;;30.70;99.90;;;;;;4994333;28;20893;-71
2023/09/12 13:44:11;;;;;;;5.30;4.80;;;30.70;99.90;;;;;;4994606;28;20465;-71
2023/09/12 13:46:38;;;;;;;5.43;4.93;;;30.50;99.90;;;;;;5002415;28;20841;-71
2023/09/12 13:49:05;;;;;;;7.60;5.30;;;30.30;99.90;;;;;;4975123;28;20491;-71
2023/09/12 13:51:31;;;;;;;6.37;5.30;;;30.00;99.90;;;;;;4981070;28;20479;-70
2023/09/12 13:53:58;;;;;;;6.03;4.90;;;29.90;99.90;;;;;;4975343;28;20509;-70
2023/09/12 13:56:26;;;;;;;6.00;4.60;;;30.00;99.90;;;;;;4978739;28;20455;-71
2023/09/12 13:58:53;;;;;;;5.80;4.77;;;30.20;99.90;;;;;;4977574;28;20458;-68
2023/09/12 14:01:20;;;;;;;5.80;5.10;;;30.40;99.90;;;;;;4988527;28;20509;-70
2023/09/12 14:03:47;;;;;;;5.00;4.60;;;30.60;99.90;;;;;;4994207;28;20477;-70
2023/09/12 14:06:14;;;;;;;5.57;5.03;;;30.80;99.90;;;;;;4994010;28;20879;-67
2023/09/12 14:08:41;;;;;;;5.57;5.10;;;31.00;99.90;;;;;;4980530;28;20493;-70
2023/09/12 14:11:07;;;;;;;5.97;5.30;;;31.10;99.90;;;;;;4974731;28;20889;-67
2023/09/12 14:13:35;;;;;;;5.63;5.13;;;31.20;99.90;;;;;;4979484;28;20470;-70
2023/09/12 14:16:02;;;;;;;5.17;4.67;;;31.30;99.90;;;;;;4981949;28;20470;-69
2023/09/12 14:18:29;;;;;;;5.40;4.90;;;31.10;99.90;;;;;;4979219;28;20459;-69
2023/09/12 14:20:56;;;;;;;7.10;5.50;;;30.90;99.90;;;;;;4994575;28;20544;-70
2023/09/12 14:23:22;;;;;;;5.60;5.10;;;30.60;99.90;;;;;;4993491;28;20489;-70
2023/09/12 14:25:49;;;;;;;7.70;5.03;;;30.30;99.90;;;;;;4993929;28;20466;-70
2023/09/12 14:28:16;;;;;;;5.77;5.30;;;30.00;99.90;;;;;;4993668;28;20858;-70
2023/09/12 14:30:45;;;;;;;5.90;5.40;;;29.70;99.90;;;;;;4983584;28;20486;-67
2023/09/12 14:33:13;;;;;;;7.50;5.60;;;29.40;99.90;;;;;;4976799;28;20936;-67
2023/09/12 14:35:40;;;;;;;5.30;4.83;;;29.20;99.90;;;;;;4981835;28;20473;-69
2023/09/12 14:38:07;;;;;;;6.60;5.70;;;29.00;99.90;;;;;;4976256;28;20839;-69
2023/09/12 14:40:34;;;;;;;6.33;5.10;;;28.80;99.90;;;;;;4990158;28;20494;-67
2023/09/12 14:43:01;;;;;;;7.97;5.13;;;28.60;99.90;;;;;;4979992;28;20466;-69
2023/09/12 14:45:28;;;;;;;5.97;5.10;;;28.50;99.90;;;;;;4988058;28;20812;-69
2023/09/12 14:47:56;;;;;;;5.40;4.90;;;28.40;99.90;;;;;;4976558;28;20856;-69
2023/09/12 14:50:23;;;;;;;5.87;5.20;;;28.30;99.90;;;;;;4988710;28;20470;-67
2023/09/12 14:52:50;;;;;;;5.37;4.87;;;28.20;99.90;;;;;;4974385;28;20466;-66
2023/09/12 14:55:17;;;;;;;5.67;5.00;;;28.20;99.90;;;;;;4991482;28;20466;-67
2023/09/12 14:57:44;;;;;;;5.80;5.30;;;28.10;99.90;;;;;;4975440;28;20890;-67
2023/09/12 15:00:11;;;;;;;5.60;5.10;;;28.10;99.90;;;;;;4986704;28;20984;-67
2023/09/12 15:02:38;;;;;;;5.13;4.40;;;28.10;99.90;;;;;;4989116;28;20482;-67
2023/09/12 15:05:08;;;;;;;5.87;5.37;;;28.10;99.90;;;;;;4992195;28;20459;-67
2023/09/12 15:07:37;;;;;;;6.07;5.47;;;28.10;99.90;;;;;;4992116;28;20524;-73
2023/09/12 15:10:04;;;;;;;5.37;4.73;;;28.10;99.90;;;;;;4984479;28;20462;-67
2023/09/12 15:12:30;;;;;;;5.40;4.90;;;28.10;99.90;;;;;;4992190;28;20490;-66
2023/09/12 15:14:57;;;;;;;4.90;4.37;;;28.20;99.90;;;;;;4992284;28;21211;-66
2023/09/12 15:17:24;;;;;;;6.63;5.60;;;28.30;99.90;;;;;;4992219;28;20466;-65
2023/09/12 15:19:51;;;;;;;6.13;5.53;;;28.40;99.90;;;;;;4992360;28;20459;-66
2023/09/12 15:22:19;;;;;;;5.73;5.23;;;28.50;99.90;;;;;;4989235;28;20497;-66
2023/09/12 15:24:45;;;;;;;7.40;6.27;;;28.50;99.90;;;;;;4992110;28;20462;-66
2023/09/12 15:27:12;;;;;;;6.10;5.23;;;28.40;99.90;;;;;;4983962;28;20838;-66
2023/09/12 15:29:39;;;;;;;5.40;4.90;;;28.30;99.90;;;;;;4988261;28;20491;-66
2023/09/12 15:32:07;;;;;;;5.90;5.40;;;28.10;99.90;;;;;;4993024;28;20474;-66
2023/09/12 15:34:33;;;;;;;5.93;5.33;;;28.00;99.90;;;;;;4992170;28;20512;-65
2023/09/12 15:37:11;;;;;;;6.20;5.60;;;27.90;99.90;;;;;;4991660;28;20470;-66
2023/09/12 15:39:39;;;;;;;6.20;5.60;;;27.80;99.90;;;;;;4992293;28;21181;-66
2023/09/12 15:42:07;;;;;;;7.23;5.60;;;27.60;99.90;;;;;;4983900;28;20482;-65
2023/09/12 15:44:34;;;;;;;6.03;5.43;;;27.50;99.90;;;;;;4991577;28;20496;-66
2023/09/12 15:47:01;;;;;;;7.43;5.70;;;27.40;99.90;;;;;;4991782;28;20474;-66
2023/09/12 15:49:29;;;;;;;6.20;5.70;;;27.40;99.90;;;;;;4991685;28;20596;-66
2023/09/12 15:51:56;;;;;;;6.27;5.73;;;27.30;99.90;;;;;;4990827;28;20489;-65
2023/09/12 15:54:24;;;;;;;5.63;4.87;;;27.20;99.90;;;;;;4995528;28;20835;-65
2023/09/12 15:56:52;;;;;;;7.67;5.10;;;27.10;99.90;;;;;;4991191;28;20545;-65
2023/09/12 15:59:18;;;;;;;5.93;5.43;;;27.10;99.90;;;;;;4991632;28;20478;-65
2023/09/12 16:01:46;;;;;;;5.60;4.93;;;27.00;99.90;;;;;;4991876;28;21011;-65
2023/09/12 16:04:13;;;;;;;6.33;5.73;;;27.00;99.90;;;;;;4991831;28;20462;-65
2023/09/12 16:06:39;;;;;;;6.10;5.60;;;27.00;99.90;;;;;;4992024;28;20470;-65
2023/09/12 16:09:06;;;;;;;5.93;5.20;;;26.90;99.90;;;;;;4991604;28;20486;-65
2023/09/12 16:11:33;;;;;;;6.23;5.23;;;26.90;99.90;;;;;;4991989;28;20529;-65
2023/09/12 16:14:02;;;;;;;6.30;5.00;;;27.00;99.90;;;;;;4991457;28;20516;-65
2023/09/12 16:16:28;;;;;;;5.90;5.30;;;27.00;99.90;;;;;;4993443;28;20466;-64
2023/09/12 16:18:55;;;;;;;5.60;5.00;;;27.10;99.90;;;;;;4992054;28;20451;-64
2023/09/12 16:21:23;;;;;;;7.07;5.90;;;27.10;99.90;;;;;;4991280;28;20478;-64